Time;durP1;ratioP1;P1;durP2;ratioP2;P2;SDS_P1;SDS_P2;PMS_P1;PMS_P2;Temp;Humidity;BMP_temperature;BMP_pressure;BME280_temperature;BME280_humidity;BME280_pressure;Samples;Min_cycle;Max_cycle;Signal;HPM_P1;HPM_P2
2022/01/25 00:15:14;;;;;;;6.10;4.10;;;;;;;2.89;100.00;102466.09;5071364;28;20201;-73
2022/01/25 00:33:29;;;;;;;7.63;6.87;;;;;;;2.91;100.00;102464.06;5070780;28;20174;-72
2022/01/25 00:35:56;;;;;;;6.53;5.83;;;;;;;2.93;100.00;102454.69;5068972;28;20263;-74
2022/01/25 00:38:21;;;;;;;7.67;6.87;;;;;;;2.96;100.00;102461.53;5070537;28;20584;-73
2022/01/25 00:40:47;;;;;;;14.77;6.93;;;;;;;2.99;100.00;102459.25;5071779;28;20220;-73
2022/01/25 00:43:12;;;;;;;6.17;5.53;;;;;;;2.98;100.00;102454.06;5074244;28;20170;-73
2022/01/25 00:45:38;;;;;;;7.53;6.10;;;;;;;2.94;100.00;102456.34;5074212;28;20692;-73
2022/01/25 00:48:06;;;;;;;7.80;6.57;;;;;;;2.98;100.00;102459.47;5072948;28;20733;-73
2022/01/25 00:50:38;;;;;;;6.97;5.60;;;;;;;2.94;100.00;102456.34;5072932;28;20185;-73
2022/01/25 00:55:31;;;;;;;7.33;6.73;;;;;;;2.91;100.00;102458.66;5073992;28;20208;-73
2022/01/25 00:57:56;;;;;;;7.77;6.50;;;;;;;2.91;100.00;102454.09;5073988;28;20273;-73
2022/01/25 01:00:22;;;;;;;8.13;5.97;;;;;;;2.90;100.00;102457.81;5072738;28;20693;-73
2022/01/25 01:02:47;;;;;;;8.20;6.90;;;;;;;2.95;100.00;102457.19;5072708;28;20265;-74
2022/01/25 01:05:13;;;;;;;5.37;4.87;;;;;;;2.94;100.00;102450.97;5073763;28;20539;-73
2022/01/25 01:07:41;;;;;;;7.37;6.53;;;;;;;2.94;100.00;102442.84;5073781;28;20322;-74
2022/01/25 01:10:06;;;;;;;8.27;7.40;;;;;;;2.97;100.00;102457.81;5073967;28;20622;-73
2022/01/25 01:29:02;;;;;;;11.50;5.53;;;;;;;2.90;100.00;102448.91;5073704;28;20631;-75
2022/01/25 01:31:54;;;;;;;4.33;3.90;;;;;;;2.86;100.00;102424.19;5073579;28;20162;-74
2022/01/25 01:34:44;;;;;;;9.27;4.70;;;;;;;2.82;100.00;102436.44;5073337;28;20154;-72
2022/01/25 01:43:57;;;;;;;3.90;3.13;;;;;;;2.77;100.00;102414.66;5072999;28;20286;-73
2022/01/25 01:48:59;;;;;;;30.33;5.00;;;;;;;2.78;100.00;102410.91;5073684;28;20167;-74
2022/01/25 01:51:31;;;;;;;7.57;6.87;;;;;;;2.78;100.00;102413.63;5071505;28;20175;-74
2022/01/25 01:54:04;;;;;;;5.97;5.37;;;;;;;2.78;100.00;102402.81;5073141;28;20718;-76
2022/01/25 01:56:30;;;;;;;2.70;2.47;;;;;;;2.77;100.00;102409.25;5073159;28;20178;-77
2022/01/25 01:58:58;;;;;;;7.37;6.03;;;;;;;2.76;100.00;102398.69;5073051;28;20181;-75
2022/01/25 02:01:26;;;;;;;6.67;5.73;;;;;;;2.79;100.00;102409.06;5071694;28;20170;-77
2022/01/25 02:03:53;;;;;;;7.37;6.57;;;;;;;2.79;100.00;102403.66;5072932;28;20258;-77
2022/01/25 02:06:19;;;;;;;10.20;6.43;;;;;;;2.81;100.00;102421.28;5071300;28;20209;-78
2022/01/25 02:08:44;;;;;;;8.47;6.17;;;;;;;2.80;100.00;102422.34;5072882;28;20719;-76
2022/01/25 02:11:09;;;;;;;7.13;6.33;;;;;;;2.82;100.00;102416.72;5072829;28;20603;-78
2022/01/25 02:13:37;;;;;;;6.20;5.60;;;;;;;2.85;100.00;102414.41;5071667;28;20210;-78
2022/01/25 02:16:06;;;;;;;7.37;6.67;;;;;;;2.87;100.00;102419.59;5072382;28;20198;-77
2022/01/25 02:24:01;;;;;;;6.53;5.93;;;;;;;2.87;100.00;102406.09;5072698;28;20219;-78
2022/01/25 02:26:26;;;;;;;8.30;6.57;;;;;;;2.81;100.00;102394.31;5072338;28;20206;-77
2022/01/25 02:28:52;;;;;;;6.40;5.23;;;;;;;2.82;100.00;102400.53;5071223;28;20634;-78
2022/01/25 02:31:17;;;;;;;9.53;8.53;;;;;;;2.79;100.00;102404.47;5071200;28;20218;-78
2022/01/25 02:33:43;;;;;;;6.13;4.37;;;;;;;2.80;100.00;102399.91;5071061;28;20316;-78
2022/01/25 02:36:26;;;;;;;5.93;5.33;;;;;;;2.79;100.00;102398.25;5072022;28;20235;-76
2022/01/25 02:38:52;;;;;;;8.43;7.57;;;;;;;2.79;100.00;102393.69;5072329;28;20155;-78
2022/01/25 02:41:18;;;;;;;10.57;7.90;;;;;;;2.81;100.00;102393.47;5070948;28;20186;-78
2022/01/25 02:43:46;;;;;;;10.37;7.50;;;;;;;2.84;100.00;102393.03;5072157;28;20520;-76
2022/01/25 02:48:55;;;;;;;10.60;7.37;;;;;;;2.79;100.00;102388.28;5072390;28;20209;-78
2022/01/25 02:54:42;;;;;;;7.47;6.70;;;;;;;2.78;100.00;102386.63;5071036;28;20312;-76
2022/01/25 03:00:40;;;;;;;5.87;5.03;;;;;;;2.72;100.00;102398.25;5059492;28;20198;-77
2022/01/25 03:03:06;;;;;;;6.87;6.17;;;;;;;2.69;100.00;102377.91;5068801;28;20182;-77
2022/01/25 03:05:31;;;;;;;5.90;4.90;;;;;;;2.66;100.00;102385.63;5070020;28;20256;-77
2022/01/25 03:07:57;;;;;;;5.70;5.07;;;;;;;2.68;100.00;102370.88;5070384;28;20182;-77
2022/01/25 03:10:32;;;;;;;8.30;6.67;;;;;;;2.68;100.00;102368.16;5071544;28;20194;-77
2022/01/25 03:12:57;;;;;;;11.03;7.23;;;;;;;2.70;100.00;102373.34;5071589;28;20182;-78
2022/01/25 03:15:30;;;;;;;5.63;5.03;;;;;;;2.71;100.00;102376.88;5070057;28;20723;-78
2022/01/25 03:17:59;;;;;;;5.40;4.90;;;;;;;2.66;100.00;102377.53;5070281;28;20170;-77
2022/01/25 03:23:18;;;;;;;8.53;7.17;;;;;;;2.62;100.00;102379.00;5071536;28;20213;-74
2022/01/25 03:25:44;;;;;;;8.33;6.30;;;;;;;2.61;100.00;102374.63;5071154;28;20253;-78
2022/01/25 03:28:09;;;;;;;10.20;7.47;;;;;;;2.62;100.00;102384.38;5070041;28;20320;-76
2022/01/25 03:30:35;;;;;;;6.93;6.40;;;;;;;2.61;100.00;102374.63;5069946;28;20183;-78
2022/01/25 03:33:00;;;;;;;7.60;6.53;;;;;;;2.59;100.00;102382.91;5069778;28;20765;-77
2022/01/25 03:35:25;;;;;;;5.67;4.90;;;;;;;2.59;100.00;102376.69;5070978;28;20202;-77
2022/01/25 03:37:51;;;;;;;7.83;6.80;;;;;;;2.59;100.00;102380.22;5069920;28;20179;-76
2022/01/25 03:40:16;;;;;;;3.77;3.43;;;;;;;2.61;100.00;102377.34;5069855;28;20212;-77
2022/01/25 03:42:44;;;;;;;7.57;6.77;;;;;;;2.60;100.00;102379.22;5071081;28;20185;-77
2022/01/25 03:45:17;;;;;;;12.40;9.50;;;;;;;2.63;100.00;102373.38;5069636;28;20179;-77
2022/01/25 03:47:56;;;;;;;13.83;9.13;;;;;;;2.69;100.00;102377.09;5071068;28;20161;-76
2022/01/25 03:50:22;;;;;;;7.77;6.83;;;;;;;2.71;100.00;102383.09;5071126;28;20158;-78
2022/01/25 03:52:47;;;;;;;10.90;6.60;;;;;;;2.71;100.00;102375.00;5070933;28;20177;-78
2022/01/25 03:55:12;;;;;;;9.93;9.03;;;;;;;2.74;100.00;102385.38;5069324;28;20233;-78
2022/01/25 03:57:38;;;;;;;12.70;7.40;;;;;;;2.74;100.00;102377.28;5069566;28;20182;-78
2022/01/25 04:00:06;;;;;;;12.00;7.27;;;;;;;2.74;100.00;102384.53;5070856;28;20172;-77
2022/01/25 04:02:33;;;;;;;9.73;7.57;;;;;;;2.73;100.00;102378.31;5070891;28;20623;-76
2022/01/25 04:05:00;;;;;;;9.77;7.63;;;;;;;2.71;100.00;102374.19;5069360;28;20193;-77
2022/01/25 04:07:41;;;;;;;7.27;5.43;;;;;;;2.68;100.00;102370.03;5070803;28;20261;-76
2022/01/25 04:10:07;;;;;;;8.53;7.60;;;;;;;2.68;100.00;102370.88;5070846;28;20250;-77
2022/01/25 04:12:33;;;;;;;13.67;8.30;;;;;;;2.73;100.00;102375.63;5069465;28;20205;-78
2022/01/25 04:14:59;;;;;;;10.17;5.33;;;;;;;2.71;100.00;102368.78;5070121;28;20210;-78
2022/01/25 04:17:24;;;;;;;7.83;5.73;;;;;;;2.68;100.00;102364.66;5069269;28;20627;-77
2022/01/25 04:20:11;;;;;;;8.33;6.93;;;;;;;2.68;100.00;102364.66;5068897;28;20171;-77
2022/01/25 04:25:19;;;;;;;4.17;3.77;;;;;;;2.68;100.00;102361.94;5071152;28;20551;-78
2022/01/25 04:27:45;;;;;;;10.67;9.20;;;;;;;2.65;100.00;102359.69;5070629;28;20182;-78
2022/01/25 04:30:11;;;;;;;11.67;8.40;;;;;;;2.66;100.00;102355.94;5070577;28;20315;-76
2022/01/25 04:32:46;;;;;;;9.63;8.47;;;;;;;2.66;100.00;102364.84;5070587;28;20175;-77
2022/01/25 04:59:43;;;;;;;9.80;7.83;;;;;;;2.75;100.00;102337.63;5050600;28;20629;-75
2022/01/25 05:02:15;;;;;;;10.07;7.97;;;;;;;2.77;100.00;102340.97;5050326;28;20168;-76
2022/01/25 05:04:50;;;;;;;14.00;10.57;;;;;;;2.76;100.00;102337.44;5050083;28;20581;-74
2022/01/25 05:07:33;;;;;;;11.27;10.03;;;;;;;2.81;100.00;102334.91;5050201;28;20429;-77
2022/01/25 05:09:59;;;;;;;15.70;9.30;;;;;;;2.86;100.00;102336.97;5050228;28;20164;-76
2022/01/25 05:17:58;;;;;;;19.33;11.03;;;;;;;2.90;100.00;102357.94;5050432;28;20261;-76
2022/01/25 05:23:07;;;;;;;16.37;9.30;;;;;;;3.00;100.00;102357.47;5050183;28;20198;-77
2022/01/25 05:25:33;;;;;;;17.17;9.63;;;;;;;3.03;100.00;102351.63;5049955;28;20183;-78
2022/01/25 05:27:58;;;;;;;15.80;10.37;;;;;;;3.02;100.00;102354.56;5068520;28;20540;-78
2022/01/25 05:30:23;;;;;;;12.43;10.07;;;;;;;3.00;100.00;102360.16;5053604;28;20623;-78
2022/01/25 05:32:49;;;;;;;16.70;10.53;;;;;;;3.03;100.00;102369.72;5068909;28;20183;-76
2022/01/25 05:35:14;;;;;;;13.63;10.30;;;;;;;2.98;100.00;102365.78;5068522;28;20207;-77
2022/01/25 05:37:42;;;;;;;14.30;10.23;;;;;;;3.03;100.00;102367.84;5052164;28;20693;-78
2022/01/25 05:40:14;;;;;;;16.43;11.20;;;;;;;3.09;100.00;102363.47;5053487;28;20180;-77
2022/01/25 05:47:43;;;;;;;16.27;10.43;;;;;;;2.99;100.00;102372.03;5053668;28;20607;-77
2022/01/25 05:50:09;;;;;;;28.67;13.50;;;;;;;2.95;100.00;102370.78;5053214;28;20258;-76
2022/01/25 05:52:35;;;;;;;25.33;13.97;;;;;;;2.94;100.00;102361.88;5068533;28;20262;-77
2022/01/25 05:55:01;;;;;;;32.27;14.33;;;;;;;2.99;100.00;102377.41;5052875;28;20282;-76
2022/01/25 05:57:27;;;;;;;27.13;15.33;;;;;;;3.05;100.00;102367.66;5053081;28;20262;-76
2022/01/25 05:59:53;;;;;;;23.13;12.77;;;;;;;3.08;100.00;102372.63;5053098;28;20266;-78
2022/01/25 06:02:20;;;;;;;28.83;14.63;;;;;;;3.08;100.00;102364.53;5052913;28;20258;-76
2022/01/25 06:04:46;;;;;;;23.40;13.20;;;;;;;3.10;100.00;102373.22;5052707;28;20262;-77
2022/01/25 06:07:12;;;;;;;29.07;15.17;;;;;;;3.08;100.00;102373.44;5051648;28;20258;-77
2022/01/25 06:09:39;;;;;;;28.23;15.47;;;;;;;3.09;100.00;102369.69;5052803;28;20258;-77
2022/01/25 06:12:05;;;;;;;26.87;13.90;;;;;;;3.13;100.00;102368.22;5052827;28;20175;-77
2022/01/25 06:14:31;;;;;;;24.93;14.83;;;;;;;3.11;100.00;102374.88;5066477;28;20179;-76
2022/01/25 06:16:56;;;;;;;27.43;14.43;;;;;;;3.05;100.00;102371.19;5072505;28;20205;-78
2022/01/25 06:19:21;;;;;;;31.93;14.87;;;;;;;3.08;100.00;102369.91;5071117;28;20229;-77
2022/01/25 06:21:47;;;;;;;32.50;15.50;;;;;;;3.10;100.00;102378.63;5072693;28;20179;-79
2022/01/25 06:24:12;;;;;;;40.93;17.77;;;;;;;3.14;100.00;102382.56;5072442;28;20213;-78
2022/01/25 06:26:37;;;;;;;35.37;17.63;;;;;;;3.19;100.00;102378.19;5072287;28;20182;-76
2022/01/25 06:29:03;;;;;;;31.90;16.90;;;;;;;3.23;100.00;102379.41;5072543;28;20197;-77
2022/01/25 06:31:30;;;;;;;34.20;17.37;;;;;;;3.23;100.00;102374.00;5072447;28;20182;-74
2022/01/25 06:33:56;;;;;;;36.73;17.83;;;;;;;3.21;100.00;102386.91;5070953;28;20200;-78
2022/01/25 06:36:21;;;;;;;36.87;17.37;;;;;;;3.23;100.00;102383.97;5064450;28;20209;-78
2022/01/25 06:38:46;;;;;;;21.43;13.43;;;;;;;3.15;100.00;102379.63;5075974;28;20499;-77
2022/01/25 06:41:14;;;;;;;27.47;14.20;;;;;;;3.07;97.98;102390.69;5082971;28;20640;-77
2022/01/25 06:43:39;;;;;;;32.17;16.07;;;;;;;3.12;97.19;102373.84;5070802;28;20175;-76
2022/01/25 06:46:05;;;;;;;21.53;13.83;;;;;;;3.12;96.96;102381.94;5070704;28;20235;-76
2022/01/25 06:48:31;;;;;;;24.20;14.67;;;;;;;3.09;97.40;102388.59;5072158;28;20691;-76
2022/01/25 06:50:57;;;;;;;28.10;16.43;;;;;;;3.07;97.93;102393.41;5072070;28;20208;-77
2022/01/25 06:53:23;;;;;;;33.40;15.40;;;;;;;3.07;98.37;102392.56;5070677;28;20170;-77
2022/01/25 06:55:48;;;;;;;27.10;16.30;;;;;;;3.02;99.04;102392.34;5070342;28;20202;-78
2022/01/25 06:58:14;;;;;;;33.10;16.20;;;;;;;3.02;98.58;102387.78;5070603;28;20174;-78
2022/01/25 07:00:40;;;;;;;19.97;12.63;;;;;;;2.99;98.60;102394.44;5070548;28;20185;-77
2022/01/25 07:03:05;;;;;;;29.53;14.67;;;;;;;2.91;97.59;102391.16;5070373;28;20182;-78
2022/01/25 07:05:30;;;;;;;34.10;17.10;;;;;;;2.87;97.03;102387.22;5070423;28;20179;-77
2022/01/25 07:07:56;;;;;;;35.33;16.93;;;;;;;2.91;97.40;102393.88;5071603;28;20712;-78
2022/01/25 07:10:21;;;;;;;24.70;14.77;;;;;;;2.98;97.31;102386.56;5071667;28;20209;-78
2022/01/25 07:12:47;;;;;;;33.57;16.77;;;;;;;2.89;98.01;102393.22;5070325;28;20182;-77
2022/01/25 07:15:13;;;;;;;33.93;15.37;;;;;;;2.95;98.92;102398.63;5071372;28;20218;-77
2022/01/25 07:17:39;;;;;;;21.77;13.00;;;;;;;3.01;98.41;102402.34;5071579;28;20175;-78
2022/01/25 07:20:06;;;;;;;28.37;15.30;;;;;;;2.91;97.57;102401.97;5069853;28;20340;-78
2022/01/25 07:22:33;;;;;;;24.60;14.63;;;;;;;2.84;97.81;102401.97;5069943;28;20189;-74
2022/01/25 07:24:59;;;;;;;36.30;16.77;;;;;;;2.90;97.04;102405.72;5069883;28;20193;-76
2022/01/25 07:27:25;;;;;;;27.37;15.53;;;;;;;2.85;96.89;102403.63;5071277;28;20258;-77
2022/01/25 07:29:50;;;;;;;31.40;14.30;;;;;;;2.84;96.27;102404.66;5071322;28;20705;-76
2022/01/25 07:32:15;;;;;;;28.30;15.57;;;;;;;2.86;95.53;102399.06;5071087;28;20556;-77
2022/01/25 07:34:41;;;;;;;16.07;9.80;;;;;;;2.81;95.19;102397.00;5070917;28;20281;-74
2022/01/25 07:37:06;;;;;;;33.40;16.00;;;;;;;2.67;94.82;102395.38;5069791;28;20222;-77
2022/01/25 07:39:32;;;;;;;28.10;14.67;;;;;;;2.77;95.88;102403.03;5071239;28;20177;-76
2022/01/25 07:41:58;;;;;;;29.17;14.53;;;;;;;2.81;96.83;102410.50;5071127;28;20171;-76
2022/01/25 07:44:28;;;;;;;33.07;15.53;;;;;;;2.84;96.31;102410.06;5071073;28;20175;-78
2022/01/25 07:46:57;;;;;;;25.27;15.40;;;;;;;2.83;96.11;102411.09;5070954;28;20631;-77
2022/01/25 07:49:24;;;;;;;25.13;15.73;;;;;;;2.85;96.27;102409.03;5070588;28;20174;-75
2022/01/25 07:51:50;;;;;;;26.83;15.37;;;;;;;2.86;96.69;102405.28;5071210;28;20179;-76
2022/01/25 07:54:16;;;;;;;20.17;13.27;;;;;;;2.83;97.00;102403.00;5069563;28;20247;-76
2022/01/25 07:56:41;;;;;;;24.43;12.20;;;;;;;2.84;97.34;102414.63;5070745;28;20214;-76
2022/01/25 07:59:06;;;;;;;22.57;12.77;;;;;;;2.79;96.88;102409.06;5070839;28;20640;-77
2022/01/25 08:01:32;;;;;;;23.83;14.47;;;;;;;2.78;97.18;102413.63;5070906;28;20224;-77
2022/01/25 08:03:57;;;;;;;30.80;15.77;;;;;;;2.81;97.69;102409.66;5070901;28;20178;-76
2022/01/25 08:06:22;;;;;;;24.50;13.87;;;;;;;2.82;98.27;102411.31;5070506;28;20174;-76
2022/01/25 08:08:48;;;;;;;29.00;14.13;;;;;;;2.82;98.82;102398.66;5070748;28;20591;-75
2022/01/25 08:11:13;;;;;;;23.80;14.87;;;;;;;2.78;98.61;102405.53;5069301;28;20638;-75
2022/01/25 08:13:46;;;;;;;31.53;14.60;;;;;;;2.80;98.91;102403.44;5069308;28;20178;-75
2022/01/25 08:16:11;;;;;;;24.63;14.77;;;;;;;2.83;99.10;102400.31;5069164;28;20216;-77
2022/01/25 08:18:37;;;;;;;22.37;12.40;;;;;;;2.81;98.99;102402.41;5071890;28;20258;-73
2022/01/25 08:21:02;;;;;;;27.83;13.50;;;;;;;2.81;98.64;102397.00;5078294;28;20206;-73
2022/01/25 08:23:28;;;;;;;22.97;11.63;;;;;;;2.85;98.59;102403.63;5074167;28;20213;-73
2022/01/25 08:25:53;;;;;;;26.07;12.97;;;;;;;2.93;97.20;102405.28;5070935;28;20182;-73
2022/01/25 08:28:20;;;;;;;21.87;12.77;;;;;;;2.93;96.56;102406.09;5070797;28;20197;-73
2022/01/25 08:30:46;;;;;;;25.83;13.63;;;;;;;2.89;96.46;102404.03;5069282;28;20210;-73
2022/01/25 08:33:11;;;;;;;22.27;12.40;;;;;;;2.81;96.84;102397.00;5070726;28;20217;-73
2022/01/25 08:35:36;;;;;;;15.80;11.80;;;;;;;2.76;96.98;102395.97;5070735;28;20198;-73
2022/01/25 08:38:02;;;;;;;15.67;11.87;;;;;;;2.75;97.08;102397.00;5070718;28;20190;-73
2022/01/25 08:40:30;;;;;;;21.03;10.90;;;;;;;2.69;97.39;102391.41;5069330;28;20227;-73
2022/01/25 08:42:55;;;;;;;24.80;12.47;;;;;;;2.68;98.19;102402.41;5070589;28;20216;-73
2022/01/25 08:45:21;;;;;;;27.43;12.13;;;;;;;2.67;98.59;102408.88;5068325;28;20663;-73
2022/01/25 08:47:46;;;;;;;24.37;13.70;;;;;;;2.62;98.90;102414.91;5070367;28;20189;-73
2022/01/25 08:50:12;;;;;;;17.67;12.40;;;;;;;2.69;99.49;102417.56;5069260;28;20179;-73
2022/01/25 08:52:38;;;;;;;20.33;10.57;;;;;;;2.70;100.00;102413.84;5070254;28;20264;-73
2022/01/25 08:55:05;;;;;;;27.47;13.27;;;;;;;2.68;100.00;102413.22;5070122;28;20638;-73
2022/01/25 08:57:30;;;;;;;24.03;13.90;;;;;;;2.72;100.00;102421.72;5069132;28;20655;-73
2022/01/25 08:59:56;;;;;;;26.07;13.10;;;;;;;2.74;100.00;102425.03;5070310;28;20181;-73
2022/01/25 09:02:21;;;;;;;27.93;14.03;;;;;;;2.77;100.00;102419.22;5072486;28;20186;-73
2022/01/25 09:04:47;;;;;;;25.87;13.17;;;;;;;2.79;100.00;102422.53;5072086;28;20186;-73
2022/01/25 09:07:12;;;;;;;26.10;14.13;;;;;;;2.84;100.00;102428.13;5069663;28;20214;-73
2022/01/25 09:09:39;;;;;;;33.97;14.50;;;;;;;2.89;100.00;102426.47;5072483;28;20206;-74
2022/01/25 09:12:05;;;;;;;21.23;13.40;;;;;;;2.92;100.00;102428.75;5073915;28;20225;-73
2022/01/25 09:14:30;;;;;;;21.10;12.33;;;;;;;2.91;99.59;102431.66;5073666;28;20182;-74
2022/01/25 09:16:55;;;;;;;11.97;8.83;;;;;;;2.78;99.15;102429.00;5073752;28;20704;-73
2022/01/25 09:19:21;;;;;;;12.70;7.90;;;;;;;2.69;98.39;102409.47;5073573;28;20579;-73
2022/01/25 09:21:46;;;;;;;17.23;11.53;;;;;;;2.67;98.81;102425.06;5073605;28;20179;-73
2022/01/25 09:24:11;;;;;;;16.27;10.37;;;;;;;2.62;99.53;102420.28;5073626;28;20205;-73
2022/01/25 09:26:37;;;;;;;19.30;12.40;;;;;;;2.64;99.82;102422.78;5073305;28;20299;-73
2022/01/25 09:29:03;;;;;;;10.23;7.37;;;;;;;2.66;100.00;102428.78;5073670;28;20258;-74
2022/01/25 09:31:29;;;;;;;18.67;10.80;;;;;;;2.64;100.00;102433.56;5072085;28;20255;-73
2022/01/25 09:33:55;;;;;;;16.73;10.60;;;;;;;2.63;100.00;102429.22;5073663;28;20214;-74
2022/01/25 09:36:24;;;;;;;19.83;12.43;;;;;;;2.63;100.00;102421.94;5071572;28;20198;-74
2022/01/25 09:38:49;;;;;;;24.17;13.40;;;;;;;2.66;100.00;102428.78;5071916;28;20178;-74
2022/01/25 09:41:15;;;;;;;27.67;12.53;;;;;;;2.68;100.00;102430.25;5073088;28;20174;-74
2022/01/25 09:43:40;;;;;;;30.00;13.00;;;;;;;2.71;100.00;102423.59;5073067;28;20295;-73
2022/01/25 09:46:06;;;;;;;30.60;13.30;;;;;;;2.76;100.00;102421.09;5071475;28;20195;-74
2022/01/25 09:48:31;;;;;;;29.60;13.97;;;;;;;2.71;100.00;102420.88;5073176;28;20174;-74
2022/01/25 09:50:58;;;;;;;13.57;11.00;;;;;;;2.68;100.00;102429.41;5071670;28;20185;-74
2022/01/25 09:53:25;;;;;;;21.83;12.33;;;;;;;2.68;100.00;102426.72;5073144;28;20221;-74
2022/01/25 09:55:52;;;;;;;21.67;10.87;;;;;;;2.67;100.00;102428.56;5071131;28;20194;-73
2022/01/25 09:58:18;;;;;;;19.83;12.03;;;;;;;2.68;100.00;102429.41;5072790;28;20179;-74
2022/01/25 10:00:47;;;;;;;26.03;12.67;;;;;;;2.65;100.00;102427.13;5071324;28;20220;-75
2022/01/25 10:03:23;;;;;;;19.00;11.43;;;;;;;2.62;100.00;102424.88;5071530;28;20194;-74
2022/01/25 10:05:50;;;;;;;19.83;11.60;;;;;;;2.66;100.00;102431.50;5071222;28;20278;-73
2022/01/25 10:08:18;;;;;;;22.97;12.30;;;;;;;2.66;100.00;102429.63;5072512;28;20185;-74
2022/01/25 10:10:50;;;;;;;14.70;9.67;;;;;;;2.63;100.00;102438.13;5071435;28;20281;-74
2022/01/25 10:13:22;;;;;;;21.87;13.17;;;;;;;2.62;100.00;102439.19;5072022;28;20222;-74
2022/01/25 10:15:50;;;;;;;16.27;9.23;;;;;;;2.59;100.00;102430.66;5072252;28;20213;-73
2022/01/25 10:18:15;;;;;;;31.50;12.77;;;;;;;2.59;100.00;102434.19;5072139;28;20228;-73
2022/01/25 10:20:46;;;;;;;18.90;13.17;;;;;;;2.62;100.00;102441.88;5071087;28;20179;-75
2022/01/25 10:23:13;;;;;;;4.07;3.70;;;;;;;2.63;100.00;102437.31;5072223;28;20229;-74
2022/01/25 10:25:44;;;;;;;19.00;11.77;;;;;;;2.62;100.00;102441.88;5072012;28;20178;-74
2022/01/25 10:28:13;;;;;;;15.13;9.37;;;;;;;2.61;100.00;102434.81;5072140;28;20530;-73
2022/01/25 10:30:48;;;;;;;22.53;10.80;;;;;;;2.63;100.00;102440.00;5072005;28;20175;-73
2022/01/25 10:33:47;;;;;;;19.97;10.53;;;;;;;2.65;100.00;102436.06;5072131;28;20184;-74
2022/01/25 10:36:19;;;;;;;14.77;10.30;;;;;;;2.67;100.00;102433.16;5071623;28;20241;-74
2022/01/25 10:38:47;;;;;;;8.10;7.27;;;;;;;2.66;100.00;102432.31;5070661;28;20170;-73
2022/01/25 10:41:18;;;;;;;19.00;11.30;;;;;;;2.62;100.00;102433.78;5070447;28;20182;-75
2022/01/25 10:43:47;;;;;;;24.57;13.30;;;;;;;2.62;100.00;102420.28;5070413;28;20643;-75
2022/01/25 10:46:12;;;;;;;9.57;7.97;;;;;;;2.64;100.00;102411.97;5070353;28;20178;-76
2022/01/25 10:48:40;;;;;;;15.93;4.83;;;;;;;2.57;100.00;102411.97;5071847;28;20606;-79
2022/01/25 10:51:09;;;;;;;28.23;12.60;;;;;;;2.58;100.00;102410.13;5070338;28;20174;-75
2022/01/25 10:53:35;;;;;;;27.80;14.80;;;;;;;2.58;100.00;102419.03;5071551;28;20183;-75
2022/01/25 10:56:01;;;;;;;15.30;8.87;;;;;;;2.59;100.00;102428.78;5069965;28;20735;-75
2022/01/25 10:58:28;;;;;;;27.63;11.73;;;;;;;2.64;100.00;102417.38;5071457;28;20585;-73
2022/01/25 11:00:55;;;;;;;23.07;11.57;;;;;;;2.67;100.00;102422.34;5070255;28;20622;-76
2022/01/25 11:03:26;;;;;;;16.67;11.17;;;;;;;2.63;100.00;102418.44;5070024;28;20538;-76
2022/01/25 11:05:51;;;;;;;17.43;10.10;;;;;;;2.63;100.00;102408.47;5071129;28;20274;-75
2022/01/25 11:08:22;;;;;;;14.57;7.90;;;;;;;2.67;100.00;102412.38;5069931;28;20270;-75
2022/01/25 11:10:54;;;;;;;17.93;10.50;;;;;;;2.64;100.00;102402.03;5069892;28;20627;-75
2022/01/25 11:13:35;;;;;;;12.43;11.10;;;;;;;2.66;100.00;102413.44;5069978;28;20170;-74
2022/01/25 11:16:05;;;;;;;28.80;13.23;;;;;;;2.70;100.00;102408.44;5070891;28;20681;-76
2022/01/25 11:18:30;;;;;;;21.33;10.90;;;;;;;2.73;100.00;102405.31;5070780;28;20174;-76
2022/01/25 11:20:58;;;;;;;27.50;12.77;;;;;;;2.72;100.00;102409.06;5071047;28;20179;-76
2022/01/25 11:23:23;;;;;;;19.53;10.57;;;;;;;2.71;100.00;102415.50;5070678;28;20192;-75
2022/01/25 11:25:49;;;;;;;30.70;15.10;;;;;;;2.72;100.00;102408.22;5066674;28;20187;-76
2022/01/25 11:28:15;;;;;;;21.17;12.80;;;;;;;2.77;100.00;102414.66;5072111;28;20182;-76
2022/01/25 11:30:42;;;;;;;28.07;12.83;;;;;;;2.71;100.00;102407.41;5077104;28;20553;-75
2022/01/25 11:33:09;;;;;;;22.37;14.90;;;;;;;2.71;100.00;102407.41;5085413;28;20173;-75
2022/01/25 11:35:36;;;;;;;39.53;12.93;;;;;;;2.69;100.00;102404.91;5073311;28;20213;-76
2022/01/25 11:38:03;;;;;;;22.90;11.83;;;;;;;2.70;100.00;102405.75;5069736;28;20190;-75
2022/01/25 11:40:34;;;;;;;5.50;3.87;;;;;;;2.70;100.00;102400.34;5070748;28;20569;-76
2022/01/25 11:43:05;;;;;;;22.03;7.23;;;;;;;2.68;100.00;102403.25;5070703;28;20177;-74
2022/01/25 11:45:34;;;;;;;20.60;12.50;;;;;;;2.70;100.00;102400.34;5069075;28;20799;-76
2022/01/25 11:48:00;;;;;;;24.90;14.10;;;;;;;2.74;100.00;102398.88;5067271;28;20599;-75
2022/01/25 11:50:27;;;;;;;15.97;9.97;;;;;;;2.75;100.00;102403.25;5074819;28;20244;-75
2022/01/25 11:52:55;;;;;;;18.87;11.30;;;;;;;2.75;100.00;102400.56;5082329;28;20166;-76
2022/01/25 11:55:24;;;;;;;31.33;15.30;;;;;;;2.76;100.00;102390.59;5084947;28;20611;-76
2022/01/25 11:57:55;;;;;;;21.70;11.47;;;;;;;2.78;100.00;102397.44;5070572;28;20366;-78
2022/01/25 12:00:34;;;;;;;26.37;14.13;;;;;;;2.74;100.00;102408.84;5070703;28;20578;-76
2022/01/25 12:03:01;;;;;;;20.43;12.00;;;;;;;2.75;100.00;102405.94;5070508;28;20581;-76
2022/01/25 12:05:27;;;;;;;17.60;12.10;;;;;;;2.76;100.00;102398.69;5070225;28;20178;-77
2022/01/25 12:08:09;;;;;;;10.47;7.80;;;;;;;2.71;100.00;102399.28;5069131;28;20174;-77
2022/01/25 12:10:45;;;;;;;5.10;4.37;;;;;;;2.70;100.00;102386.84;5070275;28;20182;-76
2022/01/25 12:13:29;;;;;;;22.73;11.27;;;;;;;2.70;100.00;102392.25;5070374;28;20181;-76
2022/01/25 12:16:26;;;;;;;23.93;11.77;;;;;;;2.66;100.00;102380.22;5068770;28;20369;-77
2022/01/25 12:19:01;;;;;;;4.37;3.67;;;;;;;2.62;100.00;102377.13;5068740;28;20673;-76
2022/01/25 12:22:01;;;;;;;20.17;10.97;;;;;;;2.61;100.00;102367.38;5070634;28;20170;-75
2022/01/25 12:24:35;;;;;;;26.67;15.40;;;;;;;2.57;100.00;102359.88;5047405;28;20198;-74
2022/01/25 12:27:19;;;;;;;15.87;10.30;;;;;;;2.57;100.00;102358.03;5070220;28;20185;-75
2022/01/25 12:30:03;;;;;;;5.87;5.50;;;;;;;2.55;100.00;102357.41;5070194;28;20190;-75
2022/01/25 12:32:35;;;;;;;15.03;3.63;;;;;;;2.52;100.00;102343.50;5070609;28;20171;-77
2022/01/25 12:35:09;;;;;;;17.23;9.23;;;;;;;2.53;100.00;102348.69;5068698;28;20674;-77
2022/01/25 12:37:43;;;;;;;7.63;4.77;;;;;;;2.58;100.00;102342.66;5074237;28;20626;-77
2022/01/25 12:40:31;;;;;;;5.27;4.90;;;;;;;2.57;100.00;102333.75;5074108;28;20176;-77
2022/01/25 12:46:24;;;;;;;21.80;10.67;;;;;;;2.50;100.00;102324.84;5073699;28;20236;-77
2022/01/25 12:49:04;;;;;;;7.27;6.07;;;;;;;2.53;100.00;102318.19;5072652;28;20185;-77
2022/01/25 12:51:32;;;;;;;23.73;11.77;;;;;;;2.59;100.00;102325.44;5072627;28;20424;-77
2022/01/25 12:54:00;;;;;;;20.27;10.87;;;;;;;2.62;100.00;102317.75;5073894;28;20171;-77
2022/01/25 12:56:34;;;;;;;18.83;9.47;;;;;;;2.64;100.00;102310.28;5073593;28;20289;-77
2022/01/25 12:59:05;;;;;;;23.43;12.17;;;;;;;2.64;100.00;102320.25;5074147;28;20194;-76
2022/01/25 13:01:32;;;;;;;17.03;10.37;;;;;;;2.63;100.00;102305.09;5073724;28;20187;-76
2022/01/25 13:04:02;;;;;;;11.80;7.33;;;;;;;2.61;100.00;102305.31;5072399;28;20171;-77
2022/01/25 13:06:30;;;;;;;9.23;5.87;;;;;;;2.62;100.00;102300.75;5073582;28;20170;-77
2022/01/25 13:09:22;;;;;;;13.90;7.57;;;;;;;2.66;100.00;102305.50;5074008;28;20537;-77
2022/01/25 13:17:11;;;;;;;20.77;8.80;;;;;;;2.63;100.00;102297.84;5073662;28;20193;-76
2022/01/25 13:19:45;;;;;;;12.50;8.10;;;;;;;2.70;100.00;102303.19;5073431;28;20470;-76
2022/01/25 13:22:16;;;;;;;12.20;6.77;;;;;;;2.68;100.00;102294.47;5073769;28;20170;-75
2022/01/25 13:25:11;;;;;;;5.67;5.30;;;;;;;2.67;100.00;102290.97;5071893;28;20182;-74
2022/01/25 13:27:48;;;;;;;8.33;4.77;;;;;;;2.68;100.00;102284.53;5072340;28;20171;-76